sensor_id;sensor_type;location;lat;lon;timestamp;temperature;humidity
35678;DHT22;21791;42.828;74.582;2022-12-07T00:01:20;-8.30;99.90
35678;DHT22;21791;42.828;74.582;2022-12-07T00:03:48;-8.30;99.90
35678;DHT22;21791;42.828;74.582;2022-12-07T00:06:16;-8.40;99.90
35678;DHT22;21791;42.828;74.582;2022-12-07T00:08:46;-8.50;99.90
35678;DHT22;21791;42.828;74.582;2022-12-07T00:11:20;-8.30;99.90
35678;DHT22;21791;42.828;74.582;2022-12-07T00:13:51;-8.10;99.90
35678;DHT22;21791;42.828;74.582;2022-12-07T00:16:19;-8.10;99.90
35678;DHT22;21791;42.828;74.582;2022-12-07T00:18:46;-8.20;99.90
35678;DHT22;21791;42.828;74.582;2022-12-07T00:21:18;-8.00;99.90
35678;DHT22;21791;42.828;74.582;2022-12-07T00:23:46;-8.30;99.90
35678;DHT22;21791;42.828;74.582;2022-12-07T00:26:18;-8.20;99.90
35678;DHT22;21791;42.828;74.582;2022-12-07T00:28:48;-8.00;99.90
35678;DHT22;21791;42.828;74.582;2022-12-07T00:31:16;-8.10;99.90
35678;DHT22;21791;42.828;74.582;2022-12-07T00:33:43;-8.00;99.90
35678;DHT22;21791;42.828;74.582;2022-12-07T00:36:12;-8.00;99.90
35678;DHT22;21791;42.828;74.582;2022-12-07T00:38:39;-7.90;99.90
35678;DHT22;21791;42.828;74.582;2022-12-07T00:41:14;-7.80;99.90
35678;DHT22;21791;42.828;74.582;2022-12-07T00:43:42;-7.80;99.90
35678;DHT22;21791;42.828;74.582;2022-12-07T00:46:10;-7.80;99.90
35678;DHT22;21791;42.828;74.582;2022-12-07T00:48:37;-7.70;99.90
35678;DHT22;21791;42.828;74.582;2022-12-07T00:51:05;-7.90;99.90
35678;DHT22;21791;42.828;74.582;2022-12-07T00:53:34;-7.90;99.90
35678;DHT22;21791;42.828;74.582;2022-12-07T00:56:09;-7.80;99.90
35678;DHT22;21791;42.828;74.582;2022-12-07T00:58:37;-7.50;99.90
35678;DHT22;21791;42.828;74.582;2022-12-07T01:01:05;-7.60;99.90
35678;DHT22;21791;42.828;74.582;2022-12-07T01:03:32;-7.80;99.90
35678;DHT22;21791;42.828;74.582;2022-12-07T01:05:59;-7.80;99.90
35678;DHT22;21791;42.828;74.582;2022-12-07T01:08:27;-7.80;99.90
35678;DHT22;21791;42.828;74.582;2022-12-07T01:11:05;-7.80;99.90
35678;DHT22;21791;42.828;74.582;2022-12-07T01:13:33;-7.90;99.90
35678;DHT22;21791;42.828;74.582;2022-12-07T01:16:02;-7.90;99.90
35678;DHT22;21791;42.828;74.582;2022-12-07T01:18:30;-8.10;99.90
35678;DHT22;21791;42.828;74.582;2022-12-07T01:23:24;-8.30;99.90
35678;DHT22;21791;42.828;74.582;2022-12-07T01:25:58;-7.90;99.90
35678;DHT22;21791;42.828;74.582;2022-12-07T01:28:26;-8.00;99.90
35678;DHT22;21791;42.828;74.582;2022-12-07T01:31:04;-8.10;99.90
35678;DHT22;21791;42.828;74.582;2022-12-07T01:33:34;-8.30;99.90
35678;DHT22;21791;42.828;74.582;2022-12-07T01:38:40;-8.10;99.90
35678;DHT22;21791;42.828;74.582;2022-12-07T01:41:06;-8.30;99.90
35678;DHT22;21791;42.828;74.582;2022-12-07T01:43:33;-8.50;99.90
35678;DHT22;21791;42.828;74.582;2022-12-07T01:46:02;-8.50;99.90
35678;DHT22;21791;42.828;74.582;2022-12-07T01:48:54;-8.60;99.90
35678;DHT22;21791;42.828;74.582;2022-12-07T01:51:21;-8.50;99.90
35678;DHT22;21791;42.828;74.582;2022-12-07T01:53:47;-8.50;99.90
35678;DHT22;21791;42.828;74.582;2022-12-07T01:56:18;-8.50;99.90
35678;DHT22;21791;42.828;74.582;2022-12-07T01:58:46;-8.40;99.90
35678;DHT22;21791;42.828;74.582;2022-12-07T02:01:13;-8.50;99.90
35678;DHT22;21791;42.828;74.582;2022-12-07T02:03:43;-8.50;99.90
35678;DHT22;21791;42.828;74.582;2022-12-07T02:06:13;-8.70;99.90
35678;DHT22;21791;42.828;74.582;2022-12-07T02:08:42;-8.70;99.90
35678;DHT22;21791;42.828;74.582;2022-12-07T02:11:09;-8.60;99.90
35678;DHT22;21791;42.828;74.582;2022-12-07T02:13:39;-8.50;99.90
35678;DHT22;21791;42.828;74.582;2022-12-07T02:18:53;-8.50;99.90
35678;DHT22;21791;42.828;74.582;2022-12-07T02:35:22;-8.80;99.90
35678;DHT22;21791;42.828;74.582;2022-12-07T02:40:36;-8.70;99.90
35678;DHT22;21791;42.828;74.582;2022-12-07T02:45:37;-8.50;99.90
35678;DHT22;21791;42.828;74.582;2022-12-07T02:48:07;-8.60;99.90
35678;DHT22;21791;42.828;74.582;2022-12-07T02:50:36;-8.40;99.90
35678;DHT22;21791;42.828;74.582;2022-12-07T02:53:02;-8.20;99.90
35678;DHT22;21791;42.828;74.582;2022-12-07T02:55:37;-8.20;99.90
35678;DHT22;21791;42.828;74.582;2022-12-07T02:58:09;-8.00;99.90
35678;DHT22;21791;42.828;74.582;2022-12-07T03:00:52;-7.90;99.90
35678;DHT22;21791;42.828;74.582;2022-12-07T03:03:22;-7.90;99.90
35678;DHT22;21791;42.828;74.582;2022-12-07T03:06:34;-7.70;99.90
35678;DHT22;21791;42.828;74.582;2022-12-07T03:09:14;-7.70;99.90
35678;DHT22;21791;42.828;74.582;2022-12-07T03:12:10;-7.80;99.90
35678;DHT22;21791;42.828;74.582;2022-12-07T03:14:49;-7.60;99.90
35678;DHT22;21791;42.828;74.582;2022-12-07T03:17:22;-7.70;99.90
35678;DHT22;21791;42.828;74.582;2022-12-07T03:19:54;-7.40;99.90
35678;DHT22;21791;42.828;74.582;2022-12-07T03:22:23;-7.60;99.90
35678;DHT22;21791;42.828;74.582;2022-12-07T03:24:57;-7.60;99.90
35678;DHT22;21791;42.828;74.582;2022-12-07T03:27:38;-7.30;99.90
35678;DHT22;21791;42.828;74.582;2022-12-07T03:30:08;-7.40;99.90
35678;DHT22;21791;42.828;74.582;2022-12-07T03:33:36;-7.30;99.90
35678;DHT22;21791;42.828;74.582;2022-12-07T03:35:53;-7.00;99.90
35678;DHT22;21791;42.828;74.582;2022-12-07T03:38:31;-6.80;99.90
35678;DHT22;21791;42.828;74.582;2022-12-07T03:41:16;-6.60;99.90
35678;DHT22;21791;42.828;74.582;2022-12-07T03:43:43;-6.40;99.90
35678;DHT22;21791;42.828;74.582;2022-12-07T03:51:57;-5.70;99.90
35678;DHT22;21791;42.828;74.582;2022-12-07T03:54:40;-5.70;99.90
35678;DHT22;21791;42.828;74.582;2022-12-07T03:57:08;-5.20;99.90
35678;DHT22;21791;42.828;74.582;2022-12-07T03:59:37;-5.20;99.90
35678;DHT22;21791;42.828;74.582;2022-12-07T04:02:06;-5.30;99.90
35678;DHT22;21791;42.828;74.582;2022-12-07T04:04:34;-5.00;99.90
35678;DHT22;21791;42.828;74.582;2022-12-07T04:07:01;-4.30;99.90
35678;DHT22;21791;42.828;74.582;2022-12-07T04:09:27;-4.10;99.90
35678;DHT22;21791;42.828;74.582;2022-12-07T04:11:54;-4.30;99.90
35678;DHT22;21791;42.828;74.582;2022-12-07T04:14:20;-3.40;99.90
35678;DHT22;21791;42.828;74.582;2022-12-07T04:16:57;-2.40;99.90
35678;DHT22;21791;42.828;74.582;2022-12-07T04:19:29;-1.60;99.90
35678;DHT22;21791;42.828;74.582;2022-12-07T04:21:57;-0.90;99.90
35678;DHT22;21791;42.828;74.582;2022-12-07T04:24:25;-0.90;99.90
35678;DHT22;21791;42.828;74.582;2022-12-07T04:26:51;-1.00;99.90
35678;DHT22;21791;42.828;74.582;2022-12-07T04:29:19;-0.40;99.90
35678;DHT22;21791;42.828;74.582;2022-12-07T04:31:45;0.30;99.90
35678;DHT22;21791;42.828;74.582;2022-12-07T04:34:15;0.90;99.90
35678;DHT22;21791;42.828;74.582;2022-12-07T04:36:42;1.60;99.90
35678;DHT22;21791;42.828;74.582;2022-12-07T04:39:31;2.10;99.90
35678;DHT22;21791;42.828;74.582;2022-12-07T04:41:58;2.70;99.90
35678;DHT22;21791;42.828;74.582;2022-12-07T04:44:26;2.50;99.90
35678;DHT22;21791;42.828;74.582;2022-12-07T04:46:54;3.10;99.90
35678;DHT22;21791;42.828;74.582;2022-12-07T04:49:21;3.40;99.90
35678;DHT22;21791;42.828;74.582;2022-12-07T04:51:48;4.00;99.90
35678;DHT22;21791;42.828;74.582;2022-12-07T04:54:16;4.40;98.90
35678;DHT22;21791;42.828;74.582;2022-12-07T04:56:42;4.70;95.90
35678;DHT22;21791;42.828;74.582;2022-12-07T04:59:13;5.40;85.40
35678;DHT22;21791;42.828;74.582;2022-12-07T05:01:41;5.40;83.10
35678;DHT22;21791;42.828;74.582;2022-12-07T05:04:08;5.70;77.50
35678;DHT22;21791;42.828;74.582;2022-12-07T05:06:36;5.60;78.90
35678;DHT22;21791;42.828;74.582;2022-12-07T05:09:04;6.10;72.90
35678;DHT22;21791;42.828;74.582;2022-12-07T05:11:31;6.20;76.30
35678;DHT22;21791;42.828;74.582;2022-12-07T05:14:25;6.50;63.80
35678;DHT22;21791;42.828;74.582;2022-12-07T05:16:51;6.60;56.40
35678;DHT22;21791;42.828;74.582;2022-12-07T05:19:19;7.60;52.60
35678;DHT22;21791;42.828;74.582;2022-12-07T05:21:47;8.10;50.60
35678;DHT22;21791;42.828;74.582;2022-12-07T05:24:15;7.00;50.90
35678;DHT22;21791;42.828;74.582;2022-12-07T05:26:43;7.90;49.30
35678;DHT22;21791;42.828;74.582;2022-12-07T05:29:17;7.90;48.60
35678;DHT22;21791;42.828;74.582;2022-12-07T05:31:43;7.10;45.80
35678;DHT22;21791;42.828;74.582;2022-12-07T05:34:10;6.30;49.00
35678;DHT22;21791;42.828;74.582;2022-12-07T05:36:37;6.80;47.60
35678;DHT22;21791;42.828;74.582;2022-12-07T05:39:03;7.30;45.90
35678;DHT22;21791;42.828;74.582;2022-12-07T05:41:30;7.70;44.40
35678;DHT22;21791;42.828;74.582;2022-12-07T05:44:15;7.40;44.00
35678;DHT22;21791;42.828;74.582;2022-12-07T05:46:41;7.40;43.90
35678;DHT22;21791;42.828;74.582;2022-12-07T05:49:08;6.30;45.00
35678;DHT22;21791;42.828;74.582;2022-12-07T05:51:35;6.20;49.20
35678;DHT22;21791;42.828;74.582;2022-12-07T05:54:01;6.90;48.60
35678;DHT22;21791;42.828;74.582;2022-12-07T05:56:28;7.30;46.70
35678;DHT22;21791;42.828;74.582;2022-12-07T05:58:54;4.70;46.10
35678;DHT22;21791;42.828;74.582;2022-12-07T06:01:39;4.00;50.40
35678;DHT22;21791;42.828;74.582;2022-12-07T06:04:07;4.30;52.20
35678;DHT22;21791;42.828;74.582;2022-12-07T06:06:33;3.20;52.20
35678;DHT22;21791;42.828;74.582;2022-12-07T06:09:00;3.40;53.30
35678;DHT22;21791;42.828;74.582;2022-12-07T06:11:26;3.50;52.50
35678;DHT22;21791;42.828;74.582;2022-12-07T06:14:19;4.60;53.60
35678;DHT22;21791;42.828;74.582;2022-12-07T06:16:45;5.50;50.60
35678;DHT22;21791;42.828;74.582;2022-12-07T06:19:12;4.10;50.60
35678;DHT22;21791;42.828;74.582;2022-12-07T06:21:39;3.50;53.30
35678;DHT22;21791;42.828;74.582;2022-12-07T06:24:06;2.60;76.50
35678;DHT22;21791;42.828;74.582;2022-12-07T06:26:32;1.90;93.20
35678;DHT22;21791;42.828;74.582;2022-12-07T06:28:59;1.70;98.80
35678;DHT22;21791;42.828;74.582;2022-12-07T06:31:25;1.40;99.90
35678;DHT22;21791;42.828;74.582;2022-12-07T06:33:51;1.70;99.90
35678;DHT22;21791;42.828;74.582;2022-12-07T06:36:23;1.00;99.90
35678;DHT22;21791;42.828;74.582;2022-12-07T06:38:49;0.80;99.90
35678;DHT22;21791;42.828;74.582;2022-12-07T06:41:16;0.80;99.90
35678;DHT22;21791;42.828;74.582;2022-12-07T06:43:42;0.50;99.90
35678;DHT22;21791;42.828;74.582;2022-12-07T06:46:09;0.60;99.90
35678;DHT22;21791;42.828;74.582;2022-12-07T06:48:35;0.80;99.90
35678;DHT22;21791;42.828;74.582;2022-12-07T06:51:02;0.80;99.90
35678;DHT22;21791;42.828;74.582;2022-12-07T06:53:28;0.80;99.90
35678;DHT22;21791;42.828;74.582;2022-12-07T06:55:55;0.70;99.90
35678;DHT22;21791;42.828;74.582;2022-12-07T06:58:22;0.50;99.90
35678;DHT22;21791;42.828;74.582;2022-12-07T07:00:48;0.80;99.90
35678;DHT22;21791;42.828;74.582;2022-12-07T07:03:16;0.00;99.90
35678;DHT22;21791;42.828;74.582;2022-12-07T07:05:44;0.10;99.90
35678;DHT22;21791;42.828;74.582;2022-12-07T07:08:11;0.00;99.90
35678;DHT22;21791;42.828;74.582;2022-12-07T07:10:38;-0.30;99.90
35678;DHT22;21791;42.828;74.582;2022-12-07T07:13:06;-0.30;99.90
35678;DHT22;21791;42.828;74.582;2022-12-07T07:15:33;-0.30;99.90
35678;DHT22;21791;42.828;74.582;2022-12-07T07:17:59;-0.10;99.90
35678;DHT22;21791;42.828;74.582;2022-12-07T07:20:26;-0.20;99.90
35678;DHT22;21791;42.828;74.582;2022-12-07T07:22:56;-0.20;99.90
35678;DHT22;21791;42.828;74.582;2022-12-07T07:25:23;-0.30;99.90
35678;DHT22;21791;42.828;74.582;2022-12-07T07:27:49;0.10;99.90
35678;DHT22;21791;42.828;74.582;2022-12-07T07:30:16;0.10;99.90
35678;DHT22;21791;42.828;74.582;2022-12-07T07:32:42;-0.20;99.90
35678;DHT22;21791;42.828;74.582;2022-12-07T07:35:09;-0.10;99.90
35678;DHT22;21791;42.828;74.582;2022-12-07T07:37:35;0.00;99.90
35678;DHT22;21791;42.828;74.582;2022-12-07T07:40:02;0.50;99.90
35678;DHT22;21791;42.828;74.582;2022-12-07T07:42:29;0.50;99.90
35678;DHT22;21791;42.828;74.582;2022-12-07T07:44:55;0.40;99.90
35678;DHT22;21791;42.828;74.582;2022-12-07T07:47:22;0.10;99.90
35678;DHT22;21791;42.828;74.582;2022-12-07T07:49:48;-0.20;99.90
35678;DHT22;21791;42.828;74.582;2022-12-07T07:52:15;0.20;99.90
35678;DHT22;21791;42.828;74.582;2022-12-07T07:54:41;0.60;99.90
35678;DHT22;21791;42.828;74.582;2022-12-07T07:57:08;0.60;99.90
35678;DHT22;21791;42.828;74.582;2022-12-07T07:59:35;0.70;99.90
35678;DHT22;21791;42.828;74.582;2022-12-07T08:02:01;0.90;99.90
35678;DHT22;21791;42.828;74.582;2022-12-07T08:04:28;0.90;99.90
35678;DHT22;21791;42.828;74.582;2022-12-07T08:06:54;1.10;99.90
35678;DHT22;21791;42.828;74.582;2022-12-07T08:09:21;1.30;99.90
35678;DHT22;21791;42.828;74.582;2022-12-07T08:11:48;0.90;99.90
35678;DHT22;21791;42.828;74.582;2022-12-07T08:14:14;0.60;99.90
35678;DHT22;21791;42.828;74.582;2022-12-07T08:16:40;0.30;99.90
35678;DHT22;21791;42.828;74.582;2022-12-07T08:19:07;-0.20;99.90
35678;DHT22;21791;42.828;74.582;2022-12-07T08:21:34;-0.50;99.90
35678;DHT22;21791;42.828;74.582;2022-12-07T08:24:00;-0.50;99.90
35678;DHT22;21791;42.828;74.582;2022-12-07T08:26:27;-0.60;99.90
35678;DHT22;21791;42.828;74.582;2022-12-07T08:28:53;-0.80;99.90
35678;DHT22;21791;42.828;74.582;2022-12-07T08:31:20;-0.90;99.90
35678;DHT22;21791;42.828;74.582;2022-12-07T08:33:48;-0.80;99.90
35678;DHT22;21791;42.828;74.582;2022-12-07T08:36:15;-0.80;99.90
35678;DHT22;21791;42.828;74.582;2022-12-07T08:38:42;-0.80;99.90
35678;DHT22;21791;42.828;74.582;2022-12-07T08:41:09;-0.70;99.90
35678;DHT22;21791;42.828;74.582;2022-12-07T08:43:36;-0.30;99.90
35678;DHT22;21791;42.828;74.582;2022-12-07T08:48:32;-0.40;99.90
35678;DHT22;21791;42.828;74.582;2022-12-07T08:51:01;-0.50;99.90
35678;DHT22;21791;42.828;74.582;2022-12-07T08:53:29;-0.70;99.90
35678;DHT22;21791;42.828;74.582;2022-12-07T08:55:56;-0.80;99.90
35678;DHT22;21791;42.828;74.582;2022-12-07T08:58:24;-0.80;99.90
35678;DHT22;21791;42.828;74.582;2022-12-07T09:00:50;-0.80;99.90
35678;DHT22;21791;42.828;74.582;2022-12-07T09:03:17;-0.70;99.90
35678;DHT22;21791;42.828;74.582;2022-12-07T09:05:44;-0.70;99.90
35678;DHT22;21791;42.828;74.582;2022-12-07T09:08:11;-0.80;99.90
35678;DHT22;21791;42.828;74.582;2022-12-07T09:10:38;-0.80;99.90
35678;DHT22;21791;42.828;74.582;2022-12-07T09:13:05;-0.90;99.90
35678;DHT22;21791;42.828;74.582;2022-12-07T09:15:31;-1.40;99.90
35678;DHT22;21791;42.828;74.582;2022-12-07T09:17:58;-1.60;99.90
35678;DHT22;21791;42.828;74.582;2022-12-07T09:20:25;-1.80;99.90
35678;DHT22;21791;42.828;74.582;2022-12-07T09:22:51;-2.00;99.90
35678;DHT22;21791;42.828;74.582;2022-12-07T09:25:18;-2.10;99.90
35678;DHT22;21791;42.828;74.582;2022-12-07T09:27:45;-2.20;99.90
35678;DHT22;21791;42.828;74.582;2022-12-07T09:30:12;-2.40;99.90
35678;DHT22;21791;42.828;74.582;2022-12-07T09:32:38;-2.40;99.90
35678;DHT22;21791;42.828;74.582;2022-12-07T09:35:04;-2.40;99.90
35678;DHT22;21791;42.828;74.582;2022-12-07T09:37:31;-2.30;99.90
35678;DHT22;21791;42.828;74.582;2022-12-07T09:40:01;-2.40;99.90
35678;DHT22;21791;42.828;74.582;2022-12-07T09:42:29;-2.60;99.90
35678;DHT22;21791;42.828;74.582;2022-12-07T09:44:56;-2.70;99.90
35678;DHT22;21791;42.828;74.582;2022-12-07T09:47:25;-2.70;99.90
35678;DHT22;21791;42.828;74.582;2022-12-07T09:49:55;-2.70;99.90
35678;DHT22;21791;42.828;74.582;2022-12-07T09:52:29;-2.80;99.90
35678;DHT22;21791;42.828;74.582;2022-12-07T09:54:56;-3.00;99.90
35678;DHT22;21791;42.828;74.582;2022-12-07T09:57:31;-3.00;99.90
35678;DHT22;21791;42.828;74.582;2022-12-07T10:00:02;-3.10;99.90
35678;DHT22;21791;42.828;74.582;2022-12-07T10:02:39;-3.20;99.90
35678;DHT22;21791;42.828;74.582;2022-12-07T10:05:15;-3.20;99.90
35678;DHT22;21791;42.828;74.582;2022-12-07T10:07:42;-3.20;99.90
35678;DHT22;21791;42.828;74.582;2022-12-07T10:10:25;-3.10;99.90
35678;DHT22;21791;42.828;74.582;2022-12-07T10:15:39;-3.10;99.90
35678;DHT22;21791;42.828;74.582;2022-12-07T10:21:24;-3.30;99.90
35678;DHT22;21791;42.828;74.582;2022-12-07T10:26:51;-3.30;99.90
35678;DHT22;21791;42.828;74.582;2022-12-07T10:32:06;-3.60;99.90
35678;DHT22;21791;42.828;74.582;2022-12-07T10:34:35;-3.70;99.90
35678;DHT22;21791;42.828;74.582;2022-12-07T10:39:52;-3.90;99.90
35678;DHT22;21791;42.828;74.582;2022-12-07T10:42:24;-3.90;99.90
35678;DHT22;21791;42.828;74.582;2022-12-07T10:47:36;-3.90;99.90
35678;DHT22;21791;42.828;74.582;2022-12-07T10:58:17;-4.20;99.90
35678;DHT22;21791;42.828;74.582;2022-12-07T11:07:22;-4.40;99.90
35678;DHT22;21791;42.828;74.582;2022-12-07T11:10:15;-4.60;99.90
35678;DHT22;21791;42.828;74.582;2022-12-07T11:18:11;-4.70;99.90
35678;DHT22;21791;42.828;74.582;2022-12-07T11:34:51;-5.30;99.90
35678;DHT22;21791;42.828;74.582;2022-12-07T11:37:31;-5.30;99.90
35678;DHT22;21791;42.828;74.582;2022-12-07T11:40:20;-5.40;99.90
35678;DHT22;21791;42.828;74.582;2022-12-07T11:45:33;-5.60;99.90
35678;DHT22;21791;42.828;74.582;2022-12-07T11:48:06;-5.60;99.90
35678;DHT22;21791;42.828;74.582;2022-12-07T11:50:38;-5.60;99.90
35678;DHT22;21791;42.828;74.582;2022-12-07T11:55:50;-5.80;99.90
35678;DHT22;21791;42.828;74.582;2022-12-07T12:06:23;-5.70;99.90
35678;DHT22;21791;42.828;74.582;2022-12-07T12:09:33;-5.90;99.90
35678;DHT22;21791;42.828;74.582;2022-12-07T12:12:17;-6.00;99.90
35678;DHT22;21791;42.828;74.582;2022-12-07T12:23:18;-6.00;99.90
35678;DHT22;21791;42.828;74.582;2022-12-07T12:25:54;-6.00;99.90
35678;DHT22;21791;42.828;74.582;2022-12-07T12:29:21;-6.00;99.90
35678;DHT22;21791;42.828;74.582;2022-12-07T12:31:34;-5.80;99.90
35678;DHT22;21791;42.828;74.582;2022-12-07T12:34:10;-5.70;99.90
35678;DHT22;21791;42.828;74.582;2022-12-07T12:36:51;-5.70;99.90
35678;DHT22;21791;42.828;74.582;2022-12-07T12:39:18;-5.70;99.90
35678;DHT22;21791;42.828;74.582;2022-12-07T12:46:55;-5.40;99.90
35678;DHT22;21791;42.828;74.582;2022-12-07T12:54:31;-5.20;99.90
35678;DHT22;21791;42.828;74.582;2022-12-07T12:59:36;-5.10;99.90
35678;DHT22;21791;42.828;74.582;2022-12-07T13:02:27;-5.10;99.90
35678;DHT22;21791;42.828;74.582;2022-12-07T13:16:39;-5.00;99.90
35678;DHT22;21791;42.828;74.582;2022-12-07T13:18:41;-5.10;99.90
35678;DHT22;21791;42.828;74.582;2022-12-07T13:29:18;-5.10;99.90
35678;DHT22;21791;42.828;74.582;2022-12-07T13:31:56;-5.10;99.90
35678;DHT22;21791;42.828;74.582;2022-12-07T13:34:36;-5.10;99.90
35678;DHT22;21791;42.828;74.582;2022-12-07T13:37:25;-5.10;99.90
35678;DHT22;21791;42.828;74.582;2022-12-07T13:39:58;-5.10;99.90
35678;DHT22;21791;42.828;74.582;2022-12-07T13:42:27;-5.10;99.90
35678;DHT22;21791;42.828;74.582;2022-12-07T13:44:55;-5.10;99.90
35678;DHT22;21791;42.828;74.582;2022-12-07T13:47:46;-5.20;99.90
35678;DHT22;21791;42.828;74.582;2022-12-07T13:52:57;-5.30;99.90
35678;DHT22;21791;42.828;74.582;2022-12-07T13:55:24;-5.30;99.90
35678;DHT22;21791;42.828;74.582;2022-12-07T13:57:54;-5.30;99.90
35678;DHT22;21791;42.828;74.582;2022-12-07T14:00:28;-5.40;99.90
35678;DHT22;21791;42.828;74.582;2022-12-07T14:03:01;-5.50;99.90
35678;DHT22;21791;42.828;74.582;2022-12-07T14:05:35;-5.50;99.90
35678;DHT22;21791;42.828;74.582;2022-12-07T14:08:22;-5.50;99.90
35678;DHT22;21791;42.828;74.582;2022-12-07T14:16:28;-5.80;99.90
35678;DHT22;21791;42.828;74.582;2022-12-07T14:18:57;-5.70;99.90
35678;DHT22;21791;42.828;74.582;2022-12-07T14:21:27;-5.80;99.90
35678;DHT22;21791;42.828;74.582;2022-12-07T14:26:39;-5.80;99.90
35678;DHT22;21791;42.828;74.582;2022-12-07T14:31:58;-5.90;99.90
35678;DHT22;21791;42.828;74.582;2022-12-07T14:34:31;-5.80;99.90
35678;DHT22;21791;42.828;74.582;2022-12-07T14:36:57;-5.90;99.90
35678;DHT22;21791;42.828;74.582;2022-12-07T14:39:24;-5.80;99.90
35678;DHT22;21791;42.828;74.582;2022-12-07T14:41:50;-5.80;99.90
35678;DHT22;21791;42.828;74.582;2022-12-07T14:44:22;-5.90;99.90
35678;DHT22;21791;42.828;74.582;2022-12-07T14:46:50;-5.90;99.90
35678;DHT22;21791;42.828;74.582;2022-12-07T14:49:17;-6.10;99.90
35678;DHT22;21791;42.828;74.582;2022-12-07T14:51:46;-6.00;99.90
35678;DHT22;21791;42.828;74.582;2022-12-07T14:54:17;-6.00;99.90
35678;DHT22;21791;42.828;74.582;2022-12-07T14:56:45;-6.00;99.90
35678;DHT22;21791;42.828;74.582;2022-12-07T14:59:15;-5.90;99.90
35678;DHT22;21791;42.828;74.582;2022-12-07T15:01:43;-5.90;99.90
35678;DHT22;21791;42.828;74.582;2022-12-07T15:04:09;-5.80;99.90
35678;DHT22;21791;42.828;74.582;2022-12-07T15:06:37;-6.00;99.90
35678;DHT22;21791;42.828;74.582;2022-12-07T15:09:04;-6.10;99.90
35678;DHT22;21791;42.828;74.582;2022-12-07T15:11:31;-6.00;99.90
35678;DHT22;21791;42.828;74.582;2022-12-07T15:13:59;-6.00;99.90
35678;DHT22;21791;42.828;74.582;2022-12-07T15:16:35;-6.10;99.90
35678;DHT22;21791;42.828;74.582;2022-12-07T15:19:01;-6.20;99.90
35678;DHT22;21791;42.828;74.582;2022-12-07T15:21:29;-6.30;99.90
35678;DHT22;21791;42.828;74.582;2022-12-07T15:23:56;-6.10;99.90
35678;DHT22;21791;42.828;74.582;2022-12-07T15:26:23;-6.20;99.90
35678;DHT22;21791;42.828;74.582;2022-12-07T15:28:52;-6.10;99.90
35678;DHT22;21791;42.828;74.582;2022-12-07T15:31:19;-6.20;99.90
35678;DHT22;21791;42.828;74.582;2022-12-07T15:33:48;-6.30;99.90
35678;DHT22;21791;42.828;74.582;2022-12-07T15:36:26;-6.30;99.90
35678;DHT22;21791;42.828;74.582;2022-12-07T15:38:53;-6.20;99.90
35678;DHT22;21791;42.828;74.582;2022-12-07T15:41:20;-6.20;99.90
35678;DHT22;21791;42.828;74.582;2022-12-07T15:43:47;-6.30;99.90
35678;DHT22;21791;42.828;74.582;2022-12-07T15:46:37;-6.30;99.90
35678;DHT22;21791;42.828;74.582;2022-12-07T15:49:22;-6.30;99.90
35678;DHT22;21791;42.828;74.582;2022-12-07T15:51:51;-6.20;99.90
35678;DHT22;21791;42.828;74.582;2022-12-07T15:54:21;-6.20;99.90
35678;DHT22;21791;42.828;74.582;2022-12-07T15:56:48;-6.40;99.90
35678;DHT22;21791;42.828;74.582;2022-12-07T15:59:16;-6.30;99.90
35678;DHT22;21791;42.828;74.582;2022-12-07T16:01:43;-6.30;99.90
35678;DHT22;21791;42.828;74.582;2022-12-07T16:04:10;-6.10;99.90
35678;DHT22;21791;42.828;74.582;2022-12-07T16:06:37;-6.20;99.90
35678;DHT22;21791;42.828;74.582;2022-12-07T16:09:04;-6.00;99.90
35678;DHT22;21791;42.828;74.582;2022-12-07T16:11:32;-6.30;99.90
35678;DHT22;21791;42.828;74.582;2022-12-07T16:13:59;-6.10;99.90
35678;DHT22;21791;42.828;74.582;2022-12-07T16:16:26;-6.20;99.90
35678;DHT22;21791;42.828;74.582;2022-12-07T16:18:53;-6.40;99.90
35678;DHT22;21791;42.828;74.582;2022-12-07T16:21:20;-6.50;99.90
35678;DHT22;21791;42.828;74.582;2022-12-07T16:23:47;-6.30;99.90
35678;DHT22;21791;42.828;74.582;2022-12-07T16:26:16;-6.30;99.90
35678;DHT22;21791;42.828;74.582;2022-12-07T16:28:44;-6.60;99.90
35678;DHT22;21791;42.828;74.582;2022-12-07T16:31:14;-6.40;99.90
35678;DHT22;21791;42.828;74.582;2022-12-07T16:33:42;-6.10;99.90
35678;DHT22;21791;42.828;74.582;2022-12-07T16:36:11;-6.10;99.90
35678;DHT22;21791;42.828;74.582;2022-12-07T16:38:39;-6.20;99.90
35678;DHT22;21791;42.828;74.582;2022-12-07T16:41:06;-6.00;99.90
35678;DHT22;21791;42.828;74.582;2022-12-07T16:43:34;-6.00;99.90
35678;DHT22;21791;42.828;74.582;2022-12-07T16:46:01;-5.90;99.90
35678;DHT22;21791;42.828;74.582;2022-12-07T16:48:28;-6.10;99.90
35678;DHT22;21791;42.828;74.582;2022-12-07T16:51:03;-6.00;99.90
35678;DHT22;21791;42.828;74.582;2022-12-07T16:53:30;-6.20;99.90
35678;DHT22;21791;42.828;74.582;2022-12-07T16:55:57;-5.90;99.90
35678;DHT22;21791;42.828;74.582;2022-12-07T16:58:24;-5.90;99.90
35678;DHT22;21791;42.828;74.582;2022-12-07T17:00:51;-6.10;99.90
35678;DHT22;21791;42.828;74.582;2022-12-07T17:03:18;-6.30;99.90
35678;DHT22;21791;42.828;74.582;2022-12-07T17:05:46;-6.20;99.90
35678;DHT22;21791;42.828;74.582;2022-12-07T17:08:13;-6.30;99.90
35678;DHT22;21791;42.828;74.582;2022-12-07T17:10:42;-6.40;99.90
35678;DHT22;21791;42.828;74.582;2022-12-07T17:13:09;-6.30;99.90
35678;DHT22;21791;42.828;74.582;2022-12-07T17:16:05;-6.10;99.90
35678;DHT22;21791;42.828;74.582;2022-12-07T17:18:34;-6.00;99.90
35678;DHT22;21791;42.828;74.582;2022-12-07T17:21:05;-6.20;99.90
35678;DHT22;21791;42.828;74.582;2022-12-07T17:23:33;-5.80;99.90
35678;DHT22;21791;42.828;74.582;2022-12-07T17:26:07;-6.10;99.90
35678;DHT22;21791;42.828;74.582;2022-12-07T17:28:36;-5.90;99.90
35678;DHT22;21791;42.828;74.582;2022-12-07T17:31:05;-6.20;99.90
35678;DHT22;21791;42.828;74.582;2022-12-07T17:33:33;-6.20;99.90
35678;DHT22;21791;42.828;74.582;2022-12-07T17:36:00;-6.00;99.90
35678;DHT22;21791;42.828;74.582;2022-12-07T17:38:28;-5.90;99.90
35678;DHT22;21791;42.828;74.582;2022-12-07T17:40:55;-5.90;99.90
35678;DHT22;21791;42.828;74.582;2022-12-07T17:43:21;-5.90;99.90
35678;DHT22;21791;42.828;74.582;2022-12-07T17:45:48;-6.10;99.90
35678;DHT22;21791;42.828;74.582;2022-12-07T17:48:14;-6.00;99.90
35678;DHT22;21791;42.828;74.582;2022-12-07T17:50:41;-6.20;99.90
35678;DHT22;21791;42.828;74.582;2022-12-07T17:53:26;-6.00;99.90
35678;DHT22;21791;42.828;74.582;2022-12-07T17:55:55;-6.10;99.90
35678;DHT22;21791;42.828;74.582;2022-12-07T17:58:22;-6.00;99.90
35678;DHT22;21791;42.828;74.582;2022-12-07T18:00:48;-6.00;99.90
35678;DHT22;21791;42.828;74.582;2022-12-07T18:03:15;-5.90;99.90
35678;DHT22;21791;42.828;74.582;2022-12-07T18:05:42;-6.10;99.90
35678;DHT22;21791;42.828;74.582;2022-12-07T18:08:10;-5.80;99.90
35678;DHT22;21791;42.828;74.582;2022-12-07T18:10:37;-5.90;99.90
35678;DHT22;21791;42.828;74.582;2022-12-07T18:13:03;-6.10;99.90